sensor_id;sensor_type;location;lat;lon;timestamp;pressure;altitude;pressure_sealevel;temperature;humidity
78309;BME280;67566;42.022;21.356;2023-07-08T00:02:11;99012.72;;;20.55;66.79
78309;BME280;67566;42.022;21.356;2023-07-08T00:04:38;99007.31;;;20.55;66.69
78309;BME280;67566;42.022;21.356;2023-07-08T00:07:04;99007.66;;;20.54;67.82
78309;BME280;67566;42.022;21.356;2023-07-08T00:09:30;99013.06;;;20.54;67.87
78309;BME280;67566;42.022;21.356;2023-07-08T00:11:56;99014.94;;;20.50;66.89
78309;BME280;67566;42.022;21.356;2023-07-08T00:14:23;99008.00;;;20.52;67.28
78309;BME280;67566;42.022;21.356;2023-07-08T00:16:48;99006.53;;;20.55;67.67
78309;BME280;67566;42.022;21.356;2023-07-08T00:19:15;98996.47;;;20.55;66.41
78309;BME280;67566;42.022;21.356;2023-07-08T00:21:44;99003.81;;;20.55;67.51
78309;BME280;67566;42.022;21.356;2023-07-08T00:24:10;98999.13;;;20.52;67.42
78309;BME280;67566;42.022;21.356;2023-07-08T00:26:35;99002.19;;;20.50;65.92
78309;BME280;67566;42.022;21.356;2023-07-08T00:29:01;98999.84;;;20.49;67.38
78309;BME280;67566;42.022;21.356;2023-07-08T00:31:27;98994.78;;;20.47;67.32
78309;BME280;67566;42.022;21.356;2023-07-08T00:33:53;98993.22;;;20.46;67.05
78309;BME280;67566;42.022;21.356;2023-07-08T00:36:22;98997.34;;;20.40;66.65
78309;BME280;67566;42.022;21.356;2023-07-08T00:38:48;98990.56;;;20.30;66.98
78309;BME280;67566;42.022;21.356;2023-07-08T00:41:20;98995.91;;;20.27;66.15
78309;BME280;67566;42.022;21.356;2023-07-08T00:43:51;98991.44;;;20.15;66.97
78309;BME280;67566;42.022;21.356;2023-07-08T00:51:49;98997.75;;;20.03;68.48
78309;BME280;67566;42.022;21.356;2023-07-08T00:54:18;98996.97;;;20.03;68.04
78309;BME280;67566;42.022;21.356;2023-07-08T00:59:20;99002.59;;;19.94;67.41
78309;BME280;67566;42.022;21.356;2023-07-08T01:01:46;99001.19;;;19.84;68.13
78309;BME280;67566;42.022;21.356;2023-07-08T01:07:24;99015.13;;;19.70;69.36
78309;BME280;67566;42.022;21.356;2023-07-08T01:10:01;99009.22;;;19.65;68.36
78309;BME280;67566;42.022;21.356;2023-07-08T01:12:32;99005.75;;;19.64;69.29
78309;BME280;67566;42.022;21.356;2023-07-08T01:15:01;98999.19;;;19.65;68.84
78309;BME280;67566;42.022;21.356;2023-07-08T01:17:28;99015.31;;;19.61;68.93
78309;BME280;67566;42.022;21.356;2023-07-08T01:20:00;99002.94;;;19.60;69.73
78309;BME280;67566;42.022;21.356;2023-07-08T01:22:31;99004.59;;;19.65;69.64
78309;BME280;67566;42.022;21.356;2023-07-08T01:24:58;98996.91;;;19.67;69.96
78309;BME280;67566;42.022;21.356;2023-07-08T01:27:30;98999.19;;;19.65;70.29
78309;BME280;67566;42.022;21.356;2023-07-08T01:29:58;98993.72;;;19.61;70.54
78309;BME280;67566;42.022;21.356;2023-07-08T01:32:24;98985.09;;;19.56;70.13
78309;BME280;67566;42.022;21.356;2023-07-08T01:34:50;98984.66;;;19.54;70.81
78309;BME280;67566;42.022;21.356;2023-07-08T01:37:35;98980.66;;;19.48;71.47
78309;BME280;67566;42.022;21.356;2023-07-08T01:42:49;98987.00;;;19.39;72.08
78309;BME280;67566;42.022;21.356;2023-07-08T01:45:18;98982.59;;;19.31;72.13
78309;BME280;67566;42.022;21.356;2023-07-08T01:47:56;98988.59;;;19.24;71.87
78309;BME280;67566;42.022;21.356;2023-07-08T01:50:23;98995.03;;;19.20;73.15
78309;BME280;67566;42.022;21.356;2023-07-08T01:52:50;98987.75;;;19.20;72.82
78309;BME280;67566;42.022;21.356;2023-07-08T01:55:24;98987.28;;;19.18;72.41
78309;BME280;67566;42.022;21.356;2023-07-08T01:57:51;98987.28;;;19.18;73.04
78309;BME280;67566;42.022;21.356;2023-07-08T02:00:19;98986.50;;;19.18;72.86
78309;BME280;67566;42.022;21.356;2023-07-08T02:02:44;98988.09;;;19.19;72.21
78309;BME280;67566;42.022;21.356;2023-07-08T02:05:10;98977.81;;;19.24;72.27
78309;BME280;67566;42.022;21.356;2023-07-08T02:07:35;98973.59;;;19.27;72.33
78309;BME280;67566;42.022;21.356;2023-07-08T02:10:01;98977.53;;;19.30;72.59
78309;BME280;67566;42.022;21.356;2023-07-08T02:12:26;98975.63;;;19.30;71.61
78309;BME280;67566;42.022;21.356;2023-07-08T02:14:52;98981.53;;;19.36;71.95
78309;BME280;67566;42.022;21.356;2023-07-08T02:17:17;98985.91;;;19.40;71.86
78309;BME280;67566;42.022;21.356;2023-07-08T02:19:43;98990.88;;;19.38;71.98
78309;BME280;67566;42.022;21.356;2023-07-08T02:22:09;98989.53;;;19.32;71.89
78309;BME280;67566;42.022;21.356;2023-07-08T02:24:35;98979.38;;;19.26;73.06
78309;BME280;67566;42.022;21.356;2023-07-08T02:27:00;98973.59;;;19.27;72.09
78309;BME280;67566;42.022;21.356;2023-07-08T02:29:26;98971.91;;;19.19;73.13
78309;BME280;67566;42.022;21.356;2023-07-08T02:31:52;98985.13;;;19.08;72.64
78309;BME280;67566;42.022;21.356;2023-07-08T02:34:18;98974.59;;;19.03;72.94
78309;BME280;67566;42.022;21.356;2023-07-08T02:36:43;98975.38;;;19.03;72.17
78309;BME280;67566;42.022;21.356;2023-07-08T02:39:09;98978.59;;;19.09;72.09
78309;BME280;67566;42.022;21.356;2023-07-08T02:41:35;98992.25;;;19.16;72.35
78309;BME280;67566;42.022;21.356;2023-07-08T02:44:01;98995.47;;;19.22;71.04
78309;BME280;67566;42.022;21.356;2023-07-08T02:46:26;98993.66;;;19.26;70.37
78309;BME280;67566;42.022;21.356;2023-07-08T02:48:51;98993.75;;;19.30;69.75
78309;BME280;67566;42.022;21.356;2023-07-08T02:51:17;98980.75;;;19.35;69.26
78309;BME280;67566;42.022;21.356;2023-07-08T02:53:42;98978.41;;;19.34;69.54
78309;BME280;67566;42.022;21.356;2023-07-08T02:56:08;98979.19;;;19.34;69.75
78309;BME280;67566;42.022;21.356;2023-07-08T02:58:33;98985.38;;;19.35;69.72
78309;BME280;67566;42.022;21.356;2023-07-08T03:01:00;98987.28;;;19.34;70.33
78309;BME280;67566;42.022;21.356;2023-07-08T03:03:27;98980.59;;;19.28;71.12
78309;BME280;67566;42.022;21.356;2023-07-08T03:06:00;98979.00;;;19.27;71.17
78309;BME280;67566;42.022;21.356;2023-07-08T03:08:26;98989.72;;;19.23;71.67
78309;BME280;67566;42.022;21.356;2023-07-08T03:11:00;98990.63;;;19.12;71.88
78309;BME280;67566;42.022;21.356;2023-07-08T03:13:27;98990.06;;;19.06;72.43
78309;BME280;67566;42.022;21.356;2023-07-08T03:15:54;98996.88;;;19.00;72.06
78309;BME280;67566;42.022;21.356;2023-07-08T03:18:22;98998.31;;;18.97;72.21
78309;BME280;67566;42.022;21.356;2023-07-08T03:20:52;98997.03;;;18.91;72.39
78309;BME280;67566;42.022;21.356;2023-07-08T03:23:19;98991.03;;;18.82;73.04
78309;BME280;67566;42.022;21.356;2023-07-08T03:25:44;98998.75;;;18.83;72.10
78309;BME280;67566;42.022;21.356;2023-07-08T03:28:10;99001.91;;;18.85;72.35
78309;BME280;67566;42.022;21.356;2023-07-08T03:30:39;99011.28;;;18.92;71.35
78309;BME280;67566;42.022;21.356;2023-07-08T03:33:04;99016.16;;;18.86;72.39
78309;BME280;67566;42.022;21.356;2023-07-08T03:35:30;99009.06;;;18.81;72.68
78309;BME280;67566;42.022;21.356;2023-07-08T03:37:56;99016.38;;;18.81;73.05
78309;BME280;67566;42.022;21.356;2023-07-08T03:40:22;99019.09;;;18.81;73.47
78309;BME280;67566;42.022;21.356;2023-07-08T03:42:47;99018.00;;;18.82;72.29
78309;BME280;67566;42.022;21.356;2023-07-08T03:45:13;99022.81;;;18.76;73.47
78309;BME280;67566;42.022;21.356;2023-07-08T03:47:38;99026.56;;;18.72;73.52
78309;BME280;67566;42.022;21.356;2023-07-08T03:50:04;99018.00;;;18.69;73.57
78309;BME280;67566;42.022;21.356;2023-07-08T03:52:29;99017.31;;;18.73;73.37
78309;BME280;67566;42.022;21.356;2023-07-08T03:54:55;99031.59;;;18.73;73.86
78309;BME280;67566;42.022;21.356;2023-07-08T03:57:21;99026.78;;;18.66;73.83
78309;BME280;67566;42.022;21.356;2023-07-08T03:59:47;99027.09;;;18.77;73.49
78309;BME280;67566;42.022;21.356;2023-07-08T04:02:12;99037.75;;;18.86;74.06
78309;BME280;67566;42.022;21.356;2023-07-08T04:04:38;99036.25;;;18.89;73.36
78309;BME280;67566;42.022;21.356;2023-07-08T04:07:05;99038.28;;;18.92;73.43
78309;BME280;67566;42.022;21.356;2023-07-08T04:09:30;99036.91;;;18.98;73.71
78309;BME280;67566;42.022;21.356;2023-07-08T04:11:56;99037.88;;;19.05;73.59
78309;BME280;67566;42.022;21.356;2023-07-08T04:14:23;99045.97;;;19.05;73.78
78309;BME280;67566;42.022;21.356;2023-07-08T04:16:51;99041.34;;;19.06;74.22
78309;BME280;67566;42.022;21.356;2023-07-08T04:19:18;99051.03;;;19.07;73.27
78309;BME280;67566;42.022;21.356;2023-07-08T04:21:45;99043.19;;;19.18;73.71
78309;BME280;67566;42.022;21.356;2023-07-08T04:24:12;99050.78;;;19.28;72.73
78309;BME280;67566;42.022;21.356;2023-07-08T04:26:40;99051.06;;;19.39;73.07
78309;BME280;67566;42.022;21.356;2023-07-08T04:29:14;99050.19;;;19.51;73.41
78309;BME280;67566;42.022;21.356;2023-07-08T04:31:40;99052.00;;;19.62;73.01
78309;BME280;67566;42.022;21.356;2023-07-08T04:34:07;99056.00;;;19.69;73.34
78309;BME280;67566;42.022;21.356;2023-07-08T04:36:32;99058.22;;;19.79;72.38
78309;BME280;67566;42.022;21.356;2023-07-08T04:38:59;99062.72;;;19.91;73.15
78309;BME280;67566;42.022;21.356;2023-07-08T04:41:25;99066.78;;;20.00;73.57
78309;BME280;67566;42.022;21.356;2023-07-08T04:43:52;99065.81;;;20.09;73.23
78309;BME280;67566;42.022;21.356;2023-07-08T04:46:56;99069.28;;;20.25;72.86
78309;BME280;67566;42.022;21.356;2023-07-08T04:49:23;99071.13;;;20.41;71.56
78309;BME280;67566;42.022;21.356;2023-07-08T04:51:50;99081.06;;;20.52;71.41
78309;BME280;67566;42.022;21.356;2023-07-08T04:54:17;99075.53;;;20.65;70.84
78309;BME280;67566;42.022;21.356;2023-07-08T04:56:44;99075.47;;;20.81;70.77
78309;BME280;67566;42.022;21.356;2023-07-08T04:59:13;99080.78;;;20.97;70.09
78309;BME280;67566;42.022;21.356;2023-07-08T05:01:39;99072.56;;;21.12;70.56
78309;BME280;67566;42.022;21.356;2023-07-08T05:04:06;99071.69;;;21.28;68.79
78309;BME280;67566;42.022;21.356;2023-07-08T05:06:32;99071.56;;;21.44;68.54
78309;BME280;67566;42.022;21.356;2023-07-08T05:08:59;99080.75;;;21.59;67.67
78309;BME280;67566;42.022;21.356;2023-07-08T05:11:24;99075.91;;;21.72;67.26
78309;BME280;67566;42.022;21.356;2023-07-08T05:13:50;99089.25;;;21.84;66.57
78309;BME280;67566;42.022;21.356;2023-07-08T05:16:16;99088.66;;;21.94;65.44
78309;BME280;67566;42.022;21.356;2023-07-08T05:18:42;99098.16;;;22.08;66.23
78309;BME280;67566;42.022;21.356;2023-07-08T05:21:09;99090.53;;;22.17;65.75
78309;BME280;67566;42.022;21.356;2023-07-08T05:23:35;99097.25;;;22.27;65.28
78309;BME280;67566;42.022;21.356;2023-07-08T05:26:01;99086.53;;;22.34;64.08
78309;BME280;67566;42.022;21.356;2023-07-08T05:28:27;99078.22;;;22.50;64.60
78309;BME280;67566;42.022;21.356;2023-07-08T05:30:54;99073.31;;;22.62;64.47
78309;BME280;67566;42.022;21.356;2023-07-08T05:33:24;99083.16;;;22.74;64.65
78309;BME280;67566;42.022;21.356;2023-07-08T05:35:50;99087.94;;;22.85;64.40
78309;BME280;67566;42.022;21.356;2023-07-08T05:38:16;99085.31;;;22.95;64.29
78309;BME280;67566;42.022;21.356;2023-07-08T05:40:42;99090.53;;;23.08;63.52
78309;BME280;67566;42.022;21.356;2023-07-08T05:43:07;99088.28;;;23.17;63.47
78309;BME280;67566;42.022;21.356;2023-07-08T05:45:33;99089.16;;;23.25;62.70
78309;BME280;67566;42.022;21.356;2023-07-08T05:48:01;99094.25;;;23.30;61.92
78309;BME280;67566;42.022;21.356;2023-07-08T05:50:27;99092.75;;;23.36;61.41
78309;BME280;67566;42.022;21.356;2023-07-08T05:52:53;99094.41;;;23.48;60.82
78309;BME280;67566;42.022;21.356;2023-07-08T05:55:18;99101.84;;;23.54;59.28
78309;BME280;67566;42.022;21.356;2023-07-08T05:57:43;99101.09;;;23.58;59.63
78309;BME280;67566;42.022;21.356;2023-07-08T06:00:10;99102.69;;;23.62;58.74
78309;BME280;67566;42.022;21.356;2023-07-08T06:02:36;99098.06;;;23.66;57.72
78309;BME280;67566;42.022;21.356;2023-07-08T06:05:02;99093.09;;;23.79;57.29
78309;BME280;67566;42.022;21.356;2023-07-08T06:07:27;99090.47;;;23.86;57.28
78309;BME280;67566;42.022;21.356;2023-07-08T06:09:53;99083.59;;;24.03;57.66
78309;BME280;67566;42.022;21.356;2023-07-08T06:12:21;99087.94;;;24.11;55.85
78309;BME280;67566;42.022;21.356;2023-07-08T06:14:47;99083.69;;;24.18;55.08
78309;BME280;67566;42.022;21.356;2023-07-08T06:17:12;99088.41;;;24.28;55.36
78309;BME280;67566;42.022;21.356;2023-07-08T06:19:37;99081.84;;;24.36;54.85
78309;BME280;67566;42.022;21.356;2023-07-08T06:22:03;99091.56;;;24.41;54.61
78309;BME280;67566;42.022;21.356;2023-07-08T06:24:29;99098.69;;;24.60;54.84
78309;BME280;67566;42.022;21.356;2023-07-08T06:26:54;99106.34;;;24.36;52.98
78309;BME280;67566;42.022;21.356;2023-07-08T06:29:20;99092.78;;;24.50;52.91
78309;BME280;67566;42.022;21.356;2023-07-08T06:31:45;99078.13;;;24.73;53.20
78309;BME280;67566;42.022;21.356;2023-07-08T06:34:11;99078.97;;;24.95;53.77
78309;BME280;67566;42.022;21.356;2023-07-08T06:36:36;99083.25;;;24.93;51.43
78309;BME280;67566;42.022;21.356;2023-07-08T06:39:02;99080.53;;;25.00;50.85
78309;BME280;67566;42.022;21.356;2023-07-08T06:41:29;99078.63;;;25.08;50.84
78309;BME280;67566;42.022;21.356;2023-07-08T06:43:55;99075.53;;;25.20;50.30
78309;BME280;67566;42.022;21.356;2023-07-08T06:46:20;99068.91;;;25.17;51.37
78309;BME280;67566;42.022;21.356;2023-07-08T06:48:46;99082.16;;;25.30;51.54
78309;BME280;67566;42.022;21.356;2023-07-08T06:51:11;99085.28;;;25.28;50.83
78309;BME280;67566;42.022;21.356;2023-07-08T06:53:37;99097.34;;;25.23;48.80
78309;BME280;67566;42.022;21.356;2023-07-08T06:56:02;99091.13;;;25.27;48.11
78309;BME280;67566;42.022;21.356;2023-07-08T06:58:28;99088.72;;;25.00;47.22
78309;BME280;67566;42.022;21.356;2023-07-08T07:00:53;99083.66;;;25.05;47.82
78309;BME280;67566;42.022;21.356;2023-07-08T07:03:19;99075.09;;;25.07;47.46
78309;BME280;67566;42.022;21.356;2023-07-08T07:05:44;99074.34;;;25.10;46.96
78309;BME280;67566;42.022;21.356;2023-07-08T07:08:10;99080.56;;;25.14;47.33
78309;BME280;67566;42.022;21.356;2023-07-08T07:10:36;99072.38;;;25.14;47.53
78309;BME280;67566;42.022;21.356;2023-07-08T07:13:01;99082.94;;;25.27;46.69
78309;BME280;67566;42.022;21.356;2023-07-08T07:15:27;99082.16;;;25.26;46.77
78309;BME280;67566;42.022;21.356;2023-07-08T07:17:56;99077.84;;;25.18;46.70
78309;BME280;67566;42.022;21.356;2023-07-08T07:20:21;99084.91;;;25.26;46.42
78309;BME280;67566;42.022;21.356;2023-07-08T07:22:47;99089.19;;;25.41;45.98
78309;BME280;67566;42.022;21.356;2023-07-08T07:25:12;99093.88;;;25.59;45.00
78309;BME280;67566;42.022;21.356;2023-07-08T07:27:38;99091.16;;;25.73;46.14
78309;BME280;67566;42.022;21.356;2023-07-08T07:30:03;99094.66;;;25.63;44.95
78309;BME280;67566;42.022;21.356;2023-07-08T07:32:29;99097.38;;;25.70;44.71
78309;BME280;67566;42.022;21.356;2023-07-08T07:34:55;99090.00;;;25.67;44.97
78309;BME280;67566;42.022;21.356;2023-07-08T07:37:22;99096.22;;;25.82;44.48
78309;BME280;67566;42.022;21.356;2023-07-08T07:39:48;99083.75;;;25.88;44.55
78309;BME280;67566;42.022;21.356;2023-07-08T07:42:14;99089.59;;;26.01;43.31
78309;BME280;67566;42.022;21.356;2023-07-08T07:44:40;99073.97;;;26.09;43.08
78309;BME280;67566;42.022;21.356;2023-07-08T07:47:07;99066.13;;;26.32;42.79
78309;BME280;67566;42.022;21.356;2023-07-08T07:49:33;99063.81;;;26.24;40.87
78309;BME280;67566;42.022;21.356;2023-07-08T07:51:59;99065.75;;;26.27;41.29
78309;BME280;67566;42.022;21.356;2023-07-08T07:54:24;99064.94;;;26.26;39.93
78309;BME280;67566;42.022;21.356;2023-07-08T07:56:50;99069.59;;;26.40;40.73
78309;BME280;67566;42.022;21.356;2023-07-08T07:59:16;99071.19;;;26.34;39.76
78309;BME280;67566;42.022;21.356;2023-07-08T08:01:41;99066.50;;;26.34;40.23
78309;BME280;67566;42.022;21.356;2023-07-08T08:04:09;99065.78;;;26.23;38.49
78309;BME280;67566;42.022;21.356;2023-07-08T08:06:34;99059.94;;;26.21;39.01
78309;BME280;67566;42.022;21.356;2023-07-08T08:09:00;99065.34;;;26.32;36.75
78309;BME280;67566;42.022;21.356;2023-07-08T08:11:26;99072.72;;;26.38;38.02
78309;BME280;67566;42.022;21.356;2023-07-08T08:13:52;99066.44;;;26.45;37.27
78309;BME280;67566;42.022;21.356;2023-07-08T08:16:18;99066.09;;;26.36;37.65
78309;BME280;67566;42.022;21.356;2023-07-08T08:18:44;99064.56;;;26.24;38.31
78309;BME280;67566;42.022;21.356;2023-07-08T08:21:09;99060.25;;;26.37;37.52
78309;BME280;67566;42.022;21.356;2023-07-08T08:23:35;99056.28;;;26.53;37.16
78309;BME280;67566;42.022;21.356;2023-07-08T08:26:00;99062.56;;;26.43;37.62
78309;BME280;67566;42.022;21.356;2023-07-08T08:28:25;99054.75;;;26.48;38.01
78309;BME280;67566;42.022;21.356;2023-07-08T08:30:51;99060.53;;;26.72;38.53
78309;BME280;67566;42.022;21.356;2023-07-08T08:33:18;99055.47;;;26.67;37.60
78309;BME280;67566;42.022;21.356;2023-07-08T08:35:45;99048.81;;;26.68;36.85
78309;BME280;67566;42.022;21.356;2023-07-08T08:38:10;99055.91;;;26.62;37.57
78309;BME280;67566;42.022;21.356;2023-07-08T08:40:36;99045.38;;;26.49;38.23
78309;BME280;67566;42.022;21.356;2023-07-08T08:43:12;99055.50;;;26.52;38.85
78309;BME280;67566;42.022;21.356;2023-07-08T08:48:18;99038.91;;;26.96;40.09
78309;BME280;67566;42.022;21.356;2023-07-08T08:50:52;99051.38;;;27.00;38.13
78309;BME280;67566;42.022;21.356;2023-07-08T08:53:19;99041.75;;;26.81;39.14
78309;BME280;67566;42.022;21.356;2023-07-08T08:55:54;99051.84;;;26.88;38.49
78309;BME280;67566;42.022;21.356;2023-07-08T08:58:38;99035.41;;;26.95;38.91
78309;BME280;67566;42.022;21.356;2023-07-08T09:01:12;99039.28;;;26.98;39.42
78309;BME280;67566;42.022;21.356;2023-07-08T09:03:57;99046.69;;;27.01;39.16
78309;BME280;67566;42.022;21.356;2023-07-08T09:06:27;99039.28;;;26.98;37.31
78309;BME280;67566;42.022;21.356;2023-07-08T09:08:54;99047.16;;;26.88;37.46
78309;BME280;67566;42.022;21.356;2023-07-08T09:14:20;99037.91;;;26.61;36.68
78309;BME280;67566;42.022;21.356;2023-07-08T09:20:28;99033.47;;;26.92;37.94
78309;BME280;67566;42.022;21.356;2023-07-08T09:23:29;99016.53;;;27.15;38.88
78309;BME280;67566;42.022;21.356;2023-07-08T09:26:04;99018.38;;;27.33;37.47
78309;BME280;67566;42.022;21.356;2023-07-08T09:28:41;99023.13;;;27.21;38.29
78309;BME280;67566;42.022;21.356;2023-07-08T09:31:09;99022.75;;;27.19;38.10
78309;BME280;67566;42.022;21.356;2023-07-08T09:33:42;99028.50;;;27.36;38.15
78309;BME280;67566;42.022;21.356;2023-07-08T09:36:21;99028.75;;;27.52;38.01
78309;BME280;67566;42.022;21.356;2023-07-08T09:38:48;99023.00;;;27.39;37.51
78309;BME280;67566;42.022;21.356;2023-07-08T09:41:28;99012.78;;;27.47;37.69
78309;BME280;67566;42.022;21.356;2023-07-08T09:44:03;99022.97;;;27.43;37.50
78309;BME280;67566;42.022;21.356;2023-07-08T09:46:35;99022.78;;;27.64;37.53
78309;BME280;67566;42.022;21.356;2023-07-08T09:49:13;98999.81;;;27.55;37.08
78309;BME280;67566;42.022;21.356;2023-07-08T09:51:41;99010.72;;;27.58;37.66
78309;BME280;67566;42.022;21.356;2023-07-08T09:54:07;99007.06;;;27.72;35.98
78309;BME280;67566;42.022;21.356;2023-07-08T09:56:34;99002.72;;;27.75;37.06
78309;BME280;67566;42.022;21.356;2023-07-08T09:59:01;98990.88;;;27.88;36.01
78309;BME280;67566;42.022;21.356;2023-07-08T10:01:26;98995.28;;;27.79;35.81
78309;BME280;67566;42.022;21.356;2023-07-08T10:03:58;98996.81;;;27.80;35.58
78309;BME280;67566;42.022;21.356;2023-07-08T10:06:31;98992.81;;;27.88;36.44
78309;BME280;67566;42.022;21.356;2023-07-08T10:09:02;98994.63;;;28.05;36.34
78309;BME280;67566;42.022;21.356;2023-07-08T10:11:32;98984.44;;;28.06;35.38
78309;BME280;67566;42.022;21.356;2023-07-08T10:14:08;98979.31;;;28.08;35.06
78309;BME280;67566;42.022;21.356;2023-07-08T10:16:35;98980.03;;;28.16;34.57
78309;BME280;67566;42.022;21.356;2023-07-08T10:19:04;98975.88;;;28.35;35.63
78309;BME280;67566;42.022;21.356;2023-07-08T10:21:48;98989.13;;;28.40;35.15
78309;BME280;67566;42.022;21.356;2023-07-08T10:35:58;98958.06;;;28.77;33.13
78309;BME280;67566;42.022;21.356;2023-07-08T10:38:47;98960.09;;;28.73;32.84
78309;BME280;67566;42.022;21.356;2023-07-08T10:44:04;98954.63;;;28.73;33.50
78309;BME280;67566;42.022;21.356;2023-07-08T10:46:46;98954.88;;;28.83;33.23
78309;BME280;67566;42.022;21.356;2023-07-08T10:49:39;98936.16;;;28.77;32.77
78309;BME280;67566;42.022;21.356;2023-07-08T10:58:16;98947.91;;;29.02;32.44
78309;BME280;67566;42.022;21.356;2023-07-08T11:06:17;98939.97;;;29.07;32.99
78309;BME280;67566;42.022;21.356;2023-07-08T11:08:50;98939.84;;;29.14;33.01
78309;BME280;67566;42.022;21.356;2023-07-08T11:14:00;98914.94;;;28.58;32.83
78309;BME280;67566;42.022;21.356;2023-07-08T11:16:37;98936.25;;;28.70;31.72
78309;BME280;67566;42.022;21.356;2023-07-08T11:19:12;98916.56;;;28.79;31.74
78309;BME280;67566;42.022;21.356;2023-07-08T11:21:46;98907.25;;;28.46;32.47
78309;BME280;67566;42.022;21.356;2023-07-08T11:24:31;98899.53;;;28.68;32.31
78309;BME280;67566;42.022;21.356;2023-07-08T11:27:22;98897.31;;;29.06;33.07
78309;BME280;67566;42.022;21.356;2023-07-08T11:29:59;98891.03;;;29.06;31.85
78309;BME280;67566;42.022;21.356;2023-07-08T11:32:29;98893.59;;;28.69;31.98
78309;BME280;67566;42.022;21.356;2023-07-08T11:34:57;98889.84;;;28.83;32.21
78309;BME280;67566;42.022;21.356;2023-07-08T11:37:25;98882.25;;;28.94;31.47
78309;BME280;67566;42.022;21.356;2023-07-08T11:42:42;98897.31;;;28.59;31.87
78309;BME280;67566;42.022;21.356;2023-07-08T11:47:49;98883.13;;;28.88;31.77
78309;BME280;67566;42.022;21.356;2023-07-08T11:50:35;98875.69;;;28.88;31.89
78309;BME280;67566;42.022;21.356;2023-07-08T11:53:07;98872.03;;;28.95;31.73
78309;BME280;67566;42.022;21.356;2023-07-08T11:58:07;98872.16;;;28.88;32.43
78309;BME280;67566;42.022;21.356;2023-07-08T12:00:33;98883.97;;;28.85;32.17
78309;BME280;67566;42.022;21.356;2023-07-08T12:03:17;98861.81;;;28.75;31.56
78309;BME280;67566;42.022;21.356;2023-07-08T12:05:43;98864.72;;;28.88;31.60
78309;BME280;67566;42.022;21.356;2023-07-08T12:08:18;98865.50;;;28.89;31.92
78309;BME280;67566;42.022;21.356;2023-07-08T12:10:51;98876.16;;;29.07;32.13
78309;BME280;67566;42.022;21.356;2023-07-08T12:13:21;98858.28;;;29.22;31.11
78309;BME280;67566;42.022;21.356;2023-07-08T12:15:48;98868.97;;;29.16;31.70
78309;BME280;67566;42.022;21.356;2023-07-08T12:18:22;98876.75;;;28.94;31.46
78309;BME280;67566;42.022;21.356;2023-07-08T12:20:55;98874.81;;;29.18;30.96
78309;BME280;67566;42.022;21.356;2023-07-08T12:23:23;98878.09;;;29.30;30.99
78309;BME280;67566;42.022;21.356;2023-07-08T12:25:49;98875.50;;;29.23;30.56
78309;BME280;67566;42.022;21.356;2023-07-08T12:28:16;98885.16;;;29.31;31.57
78309;BME280;67566;42.022;21.356;2023-07-08T12:30:43;98889.16;;;29.26;30.31
78309;BME280;67566;42.022;21.356;2023-07-08T12:33:24;98886.50;;;29.43;30.19
78309;BME280;67566;42.022;21.356;2023-07-08T12:35:51;98890.06;;;29.60;30.21
78309;BME280;67566;42.022;21.356;2023-07-08T12:40:50;98883.25;;;29.68;29.69
78309;BME280;67566;42.022;21.356;2023-07-08T12:43:16;98874.84;;;29.79;30.55
78309;BME280;67566;42.022;21.356;2023-07-08T12:45:43;98866.72;;;29.91;30.12
78309;BME280;67566;42.022;21.356;2023-07-08T12:48:09;98872.44;;;29.81;30.54
78309;BME280;67566;42.022;21.356;2023-07-08T12:50:35;98881.97;;;29.76;31.20
78309;BME280;67566;42.022;21.356;2023-07-08T12:53:00;98894.25;;;29.68;29.01
78309;BME280;67566;42.022;21.356;2023-07-08T12:55:38;98881.22;;;29.72;30.37
78309;BME280;67566;42.022;21.356;2023-07-08T12:58:04;98871.50;;;29.87;30.25
78309;BME280;67566;42.022;21.356;2023-07-08T13:00:37;98877.44;;;29.86;29.28
78309;BME280;67566;42.022;21.356;2023-07-08T13:03:19;98867.75;;;29.81;29.77
78309;BME280;67566;42.022;21.356;2023-07-08T13:05:47;98874.03;;;29.98;29.38
78309;BME280;67566;42.022;21.356;2023-07-08T13:08:15;98868.13;;;30.00;30.23
78309;BME280;67566;42.022;21.356;2023-07-08T13:10:43;98871.13;;;30.05;30.73
78309;BME280;67566;42.022;21.356;2023-07-08T13:13:15;98871.91;;;30.06;30.53
78309;BME280;67566;42.022;21.356;2023-07-08T13:15:44;98872.78;;;29.63;30.61
78309;BME280;67566;42.022;21.356;2023-07-08T13:18:27;98865.22;;;29.67;29.98
78309;BME280;67566;42.022;21.356;2023-07-08T13:20:54;98867.91;;;29.70;30.84
78309;BME280;67566;42.022;21.356;2023-07-08T13:23:22;98869.47;;;29.71;29.69
78309;BME280;67566;42.022;21.356;2023-07-08T13:25:49;98859.41;;;29.65;30.04
78309;BME280;67566;42.022;21.356;2023-07-08T13:28:25;98858.41;;;29.75;29.99
78309;BME280;67566;42.022;21.356;2023-07-08T13:31:00;98862.31;;;29.78;30.19
78309;BME280;67566;42.022;21.356;2023-07-08T13:33:31;98848.06;;;29.83;30.59
78309;BME280;67566;42.022;21.356;2023-07-08T13:35:57;98858.19;;;30.06;31.09
78309;BME280;67566;42.022;21.356;2023-07-08T13:38:28;98855.00;;;30.07;30.90
78309;BME280;67566;42.022;21.356;2023-07-08T13:41:02;98854.72;;;30.02;29.61
78309;BME280;67566;42.022;21.356;2023-07-08T13:43:33;98860.19;;;29.85;30.28
78309;BME280;67566;42.022;21.356;2023-07-08T13:46:00;98851.97;;;30.02;30.53
78309;BME280;67566;42.022;21.356;2023-07-08T13:48:33;98852.19;;;30.11;30.71
78309;BME280;67566;42.022;21.356;2023-07-08T13:51:17;98844.63;;;29.99;29.72
78309;BME280;67566;42.022;21.356;2023-07-08T13:53:46;98840.56;;;30.03;30.32
78309;BME280;67566;42.022;21.356;2023-07-08T13:56:15;98847.03;;;30.13;29.18
78309;BME280;67566;42.022;21.356;2023-07-08T13:58:45;98849.63;;;30.20;29.74
78309;BME280;67566;42.022;21.356;2023-07-08T14:01:24;98835.25;;;30.12;29.89